createdAt,value
2023-05-01T00:02:11.280Z,58.17
2023-05-01T00:04:39.191Z,58.19
2023-05-01T00:07:08.494Z,58.03
2023-05-01T00:09:36.431Z,58.32
2023-05-01T00:12:04.780Z,58.27
2023-05-01T00:14:32.644Z,58.08
2023-05-01T00:17:01.073Z,58.08
2023-05-01T00:19:29.107Z,58.26
2023-05-01T00:21:57.186Z,57.94
2023-05-01T00:24:26.440Z,58.37
2023-05-01T00:26:54.332Z,58.25
2023-05-01T00:29:22.273Z,58.47
2023-05-01T00:31:50.300Z,58.75
2023-05-01T00:34:18.195Z,58.47
2023-05-01T00:36:48.017Z,58.63
2023-05-01T00:39:17.201Z,58.79
2023-05-01T00:41:46.427Z,59.07
2023-05-01T00:44:14.604Z,59.10
2023-05-01T00:46:43.660Z,58.71
2023-05-01T00:49:11.650Z,59.08
2023-05-01T00:51:39.509Z,58.86
2023-05-01T00:54:07.451Z,59.21
2023-05-01T00:56:35.404Z,58.98
2023-05-01T00:59:05.056Z,59.37
2023-05-01T01:01:33.362Z,58.96
2023-05-01T01:04:02.031Z,58.92
2023-05-01T01:06:35.045Z,59.07
2023-05-01T01:09:09.594Z,58.99
2023-05-01T01:11:41.947Z,59.16
2023-05-01T01:14:13.091Z,59.13
2023-05-01T01:16:43.536Z,59.49
2023-05-01T01:19:22.233Z,59.44
2023-05-01T01:21:51.461Z,59.59
2023-05-01T01:24:27.853Z,59.46
2023-05-01T01:27:13.148Z,59.03
2023-05-01T01:29:45.242Z,58.99
2023-05-01T01:32:28.254Z,59.29
2023-05-01T01:34:59.935Z,59.22
2023-05-01T01:37:31.469Z,59.08
2023-05-01T01:40:02.437Z,59.13
2023-05-01T01:42:32.114Z,59.16
2023-05-01T01:45:03.050Z,59.31
2023-05-01T01:47:32.437Z,59.71
2023-05-01T01:50:04.409Z,59.56
2023-05-01T01:52:32.282Z,59.63
2023-05-01T01:55:01.958Z,60.06
2023-05-01T01:57:29.906Z,59.76
2023-05-01T01:59:57.905Z,59.80
2023-05-01T02:02:27.233Z,59.84
2023-05-01T02:04:56.804Z,59.75
2023-05-01T02:07:26.095Z,59.92
2023-05-01T02:09:54.017Z,60.05
2023-05-01T02:12:22.657Z,60.05
2023-05-01T02:14:51.537Z,59.87
2023-05-01T02:17:20.146Z,59.95
2023-05-01T02:19:48.212Z,60.18
2023-05-01T02:22:17.165Z,59.71
2023-05-01T02:24:46.432Z,60.00
2023-05-01T02:27:17.695Z,60.06
2023-05-01T02:29:45.569Z,59.71
2023-05-01T02:32:13.595Z,60.02
2023-05-01T02:34:42.124Z,60.08
2023-05-01T02:37:11.778Z,59.66
2023-05-01T02:39:39.806Z,60.10
2023-05-01T02:42:09.661Z,59.88
2023-05-01T02:44:53.217Z,59.97
2023-05-01T02:47:21.957Z,60.05
2023-05-01T02:49:51.137Z,60.14
2023-05-01T02:52:19.875Z,60.05
2023-05-01T02:54:47.790Z,60.22
2023-05-01T02:57:18.055Z,60.00
2023-05-01T02:59:45.951Z,60.28
2023-05-01T03:02:13.932Z,60.08
2023-05-01T03:04:41.903Z,59.90
2023-05-01T03:07:09.910Z,59.98
2023-05-01T03:09:38.250Z,60.28
2023-05-01T03:12:06.694Z,60.08
2023-05-01T03:14:35.994Z,60.11
2023-05-01T03:17:03.882Z,59.91
2023-05-01T03:19:31.822Z,60.07
2023-05-01T03:22:00.137Z,60.25
2023-05-01T03:24:28.302Z,59.95
2023-05-01T03:26:56.294Z,59.79
2023-05-01T03:29:24.216Z,60.05
2023-05-01T03:31:53.615Z,59.63
2023-05-01T03:34:21.551Z,59.70
2023-05-01T03:36:49.448Z,59.72
2023-05-01T03:39:17.712Z,59.88
2023-05-01T03:41:45.595Z,59.65
2023-05-01T03:44:13.447Z,59.98
2023-05-01T03:46:41.418Z,60.16
2023-05-01T03:49:10.746Z,59.75
2023-05-01T03:51:38.613Z,60.24
2023-05-01T03:54:07.320Z,59.87
2023-05-01T03:56:36.733Z,60.01
2023-05-01T03:59:04.608Z,60.26
2023-05-01T04:01:33.636Z,60.23
2023-05-01T04:04:02.334Z,59.88
2023-05-01T04:06:31.706Z,59.92
2023-05-01T04:08:59.614Z,60.25
2023-05-01T04:11:27.501Z,60.08
2023-05-01T04:13:55.399Z,60.02
2023-05-01T04:16:23.370Z,59.93
2023-05-01T04:18:51.319Z,60.10
2023-05-01T04:21:19.193Z,60.08
2023-05-01T04:23:48.464Z,60.14
2023-05-01T04:26:16.767Z,59.77
2023-05-01T04:28:44.639Z,60.17
2023-05-01T04:31:12.549Z,60.21
2023-05-01T04:33:40.485Z,59.85
2023-05-01T04:36:08.789Z,60.01
2023-05-01T04:38:38.215Z,60.09
2023-05-01T04:41:07.609Z,60.02
2023-05-01T04:43:35.522Z,59.72
2023-05-01T04:46:04.622Z,60.19
2023-05-01T04:48:32.568Z,59.92
2023-05-01T04:51:00.453Z,59.72
2023-05-01T04:53:28.630Z,59.63
2023-05-01T04:55:56.559Z,59.85
2023-05-01T04:58:25.818Z,59.76
2023-05-01T05:00:53.657Z,60.08
2023-05-01T05:03:22.145Z,59.95
2023-05-01T05:05:50.162Z,60.01
2023-05-01T05:08:18.041Z,60.18
2023-05-01T05:10:46.062Z,60.07
2023-05-01T05:13:13.910Z,59.84
2023-05-01T05:15:43.148Z,59.64
2023-05-01T05:18:11.164Z,59.96
2023-05-01T05:20:42.314Z,59.91
2023-05-01T05:23:10.305Z,59.58
2023-05-01T05:25:38.203Z,59.85
2023-05-01T05:28:06.244Z,59.71
2023-05-01T05:30:34.142Z,59.58
2023-05-01T05:33:03.644Z,59.65
2023-05-01T05:35:31.667Z,59.53
2023-05-01T05:37:59.716Z,59.51
2023-05-01T05:40:27.588Z,59.29
2023-05-01T05:42:56.661Z,59.21
2023-05-01T05:45:24.523Z,59.87
2023-05-01T05:47:52.400Z,59.87
2023-05-01T05:50:21.662Z,59.93
2023-05-01T05:52:49.743Z,59.90
2023-05-01T05:55:17.741Z,59.55
2023-05-01T05:57:45.656Z,59.83
2023-05-01T06:00:14.747Z,59.99
2023-05-01T06:02:42.674Z,59.80
2023-05-01T06:05:11.331Z,59.89
2023-05-01T06:07:40.982Z,59.81
2023-05-01T06:10:09.810Z,59.46
2023-05-01T06:12:39.963Z,59.39
2023-05-01T06:15:15.704Z,59.82
2023-05-01T06:17:43.655Z,59.65
2023-05-01T06:20:13.475Z,59.77
2023-05-01T06:22:42.726Z,59.66
2023-05-01T06:25:11.394Z,59.33
2023-05-01T06:27:39.276Z,59.56
2023-05-01T06:30:09.750Z,59.17
2023-05-01T06:32:37.929Z,59.37
2023-05-01T06:35:06.430Z,59.45
2023-05-01T06:37:34.475Z,58.96
2023-05-01T06:40:04.789Z,58.93
2023-05-01T06:42:32.774Z,59.04
2023-05-01T06:45:00.971Z,59.18
2023-05-01T06:47:28.898Z,59.21
2023-05-01T06:49:57.022Z,58.87
2023-05-01T06:52:25.695Z,59.11
2023-05-01T06:54:53.525Z,58.73
2023-05-01T06:57:22.942Z,59.04
2023-05-01T06:59:50.837Z,58.63
2023-05-01T07:02:18.760Z,58.61
2023-05-01T07:04:46.709Z,58.52
2023-05-01T07:07:14.655Z,58.61
2023-05-01T07:09:42.663Z,57.99
2023-05-01T07:12:10.548Z,57.93
2023-05-01T07:14:41.547Z,58.33
2023-05-01T07:17:10.221Z,57.71
2023-05-01T07:19:39.013Z,57.80
2023-05-01T07:22:07.048Z,57.98
2023-05-01T07:24:34.939Z,57.91
2023-05-01T07:27:02.909Z,57.50
2023-05-01T07:29:30.936Z,57.54
2023-05-01T07:32:01.468Z,57.57
2023-05-01T07:34:29.403Z,57.57
2023-05-01T07:36:57.528Z,57.34
2023-05-01T07:39:25.447Z,57.43
2023-05-01T07:41:53.316Z,57.54
2023-05-01T07:44:21.211Z,57.64
2023-05-01T07:46:49.126Z,57.31
2023-05-01T07:49:18.378Z,57.55
2023-05-01T07:51:46.721Z,57.14
2023-05-01T07:54:16.202Z,57.40
2023-05-01T07:56:44.508Z,57.11
2023-05-01T07:59:12.420Z,57.09
2023-05-01T08:01:41.280Z,57.47
2023-05-01T08:04:09.289Z,57.48
2023-05-01T08:06:38.687Z,56.95
2023-05-01T08:09:06.583Z,57.34
2023-05-01T08:11:34.968Z,56.80
2023-05-01T08:14:03.847Z,56.50
2023-05-01T08:16:31.813Z,56.24
2023-05-01T08:19:00.014Z,55.88
2023-05-01T08:21:27.846Z,55.78
2023-05-01T08:23:57.699Z,56.03
2023-05-01T08:26:25.600Z,55.46
2023-05-01T08:28:53.521Z,55.50
2023-05-01T08:31:22.867Z,55.23
2023-05-01T08:33:50.827Z,54.95
2023-05-01T08:36:20.693Z,55.05
2023-05-01T08:38:49.199Z,55.01
2023-05-01T08:41:18.656Z,54.46
2023-05-01T08:43:46.552Z,54.27
2023-05-01T08:46:14.632Z,54.31
2023-05-01T08:48:43.630Z,54.43
2023-05-01T08:51:11.566Z,54.25
2023-05-01T08:53:39.435Z,54.56
2023-05-01T08:56:07.729Z,54.38
2023-05-01T08:58:36.963Z,53.94
2023-05-01T09:01:04.857Z,53.43
2023-05-01T09:03:33.363Z,53.34
2023-05-01T09:06:01.456Z,53.46
2023-05-01T09:08:29.387Z,53.29
2023-05-01T09:10:57.308Z,53.05
2023-05-01T09:13:25.193Z,53.14
2023-05-01T09:15:54.503Z,52.89
2023-05-01T09:18:22.599Z,52.74
2023-05-01T09:20:50.577Z,52.90
2023-05-01T09:23:20.256Z,52.74
2023-05-01T09:25:49.561Z,52.49
2023-05-01T09:28:18.709Z,52.43
2023-05-01T09:30:46.741Z,52.49
2023-05-01T09:33:16.940Z,52.49
2023-05-01T09:35:52.089Z,52.62
2023-05-01T09:38:20.917Z,52.77
2023-05-01T09:40:48.924Z,52.49
2023-05-01T09:43:25.595Z,51.92
2023-05-01T09:46:09.396Z,51.78
2023-05-01T09:48:39.011Z,51.76
2023-05-01T09:51:21.967Z,51.68
2023-05-01T09:53:50.180Z,51.49
2023-05-01T09:56:18.477Z,51.35
2023-05-01T09:58:46.745Z,51.25
2023-05-01T10:01:15.310Z,51.47
2023-05-01T10:03:46.380Z,51.63
2023-05-01T10:06:27.239Z,51.42
2023-05-01T10:08:55.249Z,51.63
2023-05-01T10:11:23.610Z,51.64
2023-05-01T10:14:06.501Z,51.39
2023-05-01T10:16:35.855Z,50.66
2023-05-01T10:19:05.275Z,50.49
2023-05-01T10:21:33.601Z,50.60
2023-05-01T10:24:02.394Z,51.00
2023-05-01T10:26:30.280Z,51.20
2023-05-01T10:28:59.927Z,51.10
2023-05-01T10:31:28.920Z,50.98
2023-05-01T10:33:57.011Z,50.95
2023-05-01T10:36:28.650Z,50.81
2023-05-01T10:38:56.588Z,50.68
2023-05-01T10:42:03.769Z,50.26
2023-05-01T10:44:35.052Z,50.05
2023-05-01T10:47:41.559Z,50.32
2023-05-01T10:50:11.517Z,49.98
2023-05-01T10:53:26.537Z,50.09
2023-05-01T10:55:55.939Z,49.58
2023-05-01T10:58:58.332Z,49.71
2023-05-01T11:01:33.049Z,49.77
2023-05-01T11:04:01.958Z,49.91
2023-05-01T11:06:30.090Z,49.67
2023-05-01T11:08:58.585Z,49.42
2023-05-01T11:11:52.407Z,49.43
2023-05-01T11:14:20.299Z,49.48
2023-05-01T11:16:49.647Z,48.81
2023-05-01T11:19:46.036Z,49.07
2023-05-01T11:22:14.273Z,51.25
2023-05-01T11:24:42.560Z,52.48
2023-05-01T11:27:15.785Z,52.48
2023-05-01T11:29:45.946Z,52.24
2023-05-01T11:32:17.973Z,51.84
2023-05-01T11:34:46.133Z,51.21
2023-05-01T11:37:14.578Z,50.66
2023-05-01T11:39:49.692Z,48.69
2023-05-01T11:42:21.350Z,47.89
2023-05-01T11:45:07.906Z,46.80
2023-05-01T11:47:36.252Z,47.20
2023-05-01T11:50:04.318Z,46.76
2023-05-01T11:52:32.310Z,48.14
2023-05-01T11:55:00.390Z,49.00
2023-05-01T11:57:29.776Z,49.33
2023-05-01T11:59:57.723Z,48.75
2023-05-01T12:02:25.874Z,47.43
2023-05-01T12:04:55.714Z,47.38
2023-05-01T12:07:23.975Z,46.61
2023-05-01T12:09:52.032Z,45.88
2023-05-01T12:12:19.994Z,44.53
2023-05-01T12:14:49.394Z,43.77
2023-05-01T12:17:17.665Z,43.98
2023-05-01T12:19:49.952Z,44.36
2023-05-01T12:22:17.967Z,45.05
2023-05-01T12:24:52.866Z,44.46
2023-05-01T12:27:20.914Z,43.68
2023-05-01T12:29:50.244Z,43.19
2023-05-01T12:32:18.288Z,43.39
2023-05-01T12:34:46.242Z,42.41
2023-05-01T12:37:14.136Z,42.47
2023-05-01T12:39:44.677Z,42.92
2023-05-01T12:42:13.216Z,42.40
2023-05-01T12:44:41.101Z,42.76
2023-05-01T12:47:11.062Z,43.08
2023-05-01T12:49:39.060Z,43.12
2023-05-01T12:52:08.876Z,43.29
2023-05-01T12:54:38.507Z,42.81
2023-05-01T12:57:06.638Z,42.85
2023-05-01T12:59:37.788Z,42.02
2023-05-01T13:02:06.651Z,41.85
2023-05-01T13:04:36.189Z,41.24
2023-05-01T13:07:04.131Z,40.73
2023-05-01T13:09:32.371Z,40.27
2023-05-01T13:12:01.931Z,40.35
2023-05-01T13:14:30.563Z,40.15
2023-05-01T13:16:58.432Z,40.11
2023-05-01T13:19:28.867Z,40.23
2023-05-01T13:21:58.665Z,40.60
2023-05-01T13:24:26.722Z,40.78
2023-05-01T13:26:59.492Z,40.20
2023-05-01T13:29:28.373Z,40.86
2023-05-01T13:31:56.407Z,40.76
2023-05-01T13:34:28.888Z,41.44
2023-05-01T13:36:58.197Z,41.17
2023-05-01T13:39:26.333Z,40.97
2023-05-01T13:41:54.293Z,40.81
2023-05-01T13:44:22.837Z,40.40
2023-05-01T13:46:50.930Z,39.83
2023-05-01T13:49:20.317Z,39.58
2023-05-01T13:51:48.861Z,39.28
2023-05-01T13:54:18.153Z,39.51
2023-05-01T13:56:46.652Z,39.46
2023-05-01T13:59:14.610Z,39.04
2023-05-01T14:01:46.338Z,39.15
2023-05-01T14:04:16.931Z,38.40
2023-05-01T14:06:45.302Z,38.24
2023-05-01T14:09:13.189Z,37.59
2023-05-01T14:11:49.120Z,37.88
2023-05-01T14:14:17.649Z,38.47
2023-05-01T14:16:48.533Z,38.15
2023-05-01T14:19:17.352Z,39.00
2023-05-01T14:21:45.392Z,38.80
2023-05-01T14:24:13.615Z,39.14
2023-05-01T14:26:44.424Z,38.29
2023-05-01T14:29:19.788Z,37.37
2023-05-01T14:31:48.168Z,37.27
2023-05-01T14:34:17.250Z,36.86
2023-05-01T14:36:45.206Z,36.72
2023-05-01T14:39:13.342Z,36.74
2023-05-01T14:41:42.381Z,36.43
2023-05-01T14:44:12.721Z,36.26
2023-05-01T14:46:46.334Z,35.86
2023-05-01T14:49:18.994Z,35.64
2023-05-01T14:51:46.945Z,35.55
2023-05-01T14:54:15.105Z,36.14
2023-05-01T14:56:43.549Z,36.13
2023-05-01T14:59:12.491Z,35.23
2023-05-01T15:01:41.869Z,35.29
2023-05-01T15:04:11.021Z,34.96
2023-05-01T15:06:39.418Z,34.73
2023-05-01T15:09:07.499Z,34.68
2023-05-01T15:11:35.644Z,35.35
2023-05-01T15:14:04.131Z,35.15
2023-05-01T15:16:32.853Z,35.28
2023-05-01T15:19:02.405Z,35.34
2023-05-01T15:21:30.523Z,35.13
2023-05-01T15:24:02.220Z,34.96
2023-05-01T15:26:30.269Z,34.66
2023-05-01T15:28:58.638Z,35.15
2023-05-01T15:31:26.570Z,35.41
2023-05-01T15:33:54.640Z,35.43
2023-05-01T15:36:24.179Z,34.75
2023-05-01T15:38:52.685Z,35.49
2023-05-01T15:44:11.016Z,36.80
2023-05-01T15:46:39.006Z,35.48
2023-05-01T15:49:08.623Z,35.23
2023-05-01T15:51:37.874Z,34.35
2023-05-01T15:54:05.822Z,33.63
2023-05-01T15:56:35.796Z,33.29
2023-05-01T15:59:04.437Z,33.99
2023-05-01T16:01:33.123Z,33.67
2023-05-01T16:04:01.355Z,33.13
2023-05-01T16:06:29.989Z,32.60
2023-05-01T16:09:00.291Z,32.15
2023-05-01T16:11:28.498Z,32.33
2023-05-01T16:13:56.466Z,33.38
2023-05-01T16:16:25.519Z,34.43
2023-05-01T16:18:55.483Z,34.72
2023-05-01T16:21:23.643Z,35.23
2023-05-01T16:23:53.051Z,36.07
2023-05-01T16:26:24.764Z,37.41
2023-05-01T16:28:54.800Z,38.57
2023-05-01T16:31:27.411Z,38.53
2023-05-01T16:33:56.814Z,38.54
2023-05-01T16:36:24.846Z,38.71
2023-05-01T16:38:53.709Z,39.53
2023-05-01T16:41:24.308Z,40.08
2023-05-01T16:43:52.279Z,40.88
2023-05-01T16:46:20.756Z,41.64
2023-05-01T16:48:48.680Z,42.03
2023-05-01T16:51:16.580Z,42.50
2023-05-01T16:53:44.444Z,43.09
2023-05-01T16:56:12.971Z,43.46
2023-05-01T16:58:43.788Z,43.89
2023-05-01T17:01:11.971Z,44.27
2023-05-01T17:03:40.093Z,44.77
2023-05-01T17:06:08.511Z,45.10
2023-05-01T17:08:36.518Z,45.75
2023-05-01T17:11:04.655Z,45.78
2023-05-01T17:13:32.748Z,46.31
2023-05-01T17:16:02.090Z,46.14
2023-05-01T17:18:30.248Z,46.14
2023-05-01T17:20:58.158Z,46.37
2023-05-01T17:23:28.174Z,46.44
2023-05-01T17:25:56.041Z,46.24
2023-05-01T17:28:24.366Z,46.35
2023-05-01T17:30:52.715Z,46.17
2023-05-01T17:33:22.012Z,46.50
2023-05-01T17:35:49.939Z,46.56
2023-05-01T17:38:18.171Z,46.49
2023-05-01T17:40:46.270Z,46.32
2023-05-01T17:43:14.207Z,46.40
2023-05-01T17:45:43.900Z,46.23
2023-05-01T17:48:12.126Z,46.15
2023-05-01T17:50:41.438Z,46.10
2023-05-01T17:53:09.627Z,46.32
2023-05-01T17:55:39.139Z,46.25
2023-05-01T17:58:07.532Z,46.72
2023-05-01T18:00:35.787Z,46.93
2023-05-01T18:03:04.733Z,47.02
2023-05-01T18:05:32.764Z,46.54
2023-05-01T18:08:02.026Z,47.01
2023-05-01T18:10:31.301Z,47.00
2023-05-01T18:12:59.345Z,47.26
2023-05-01T18:15:27.254Z,47.53
2023-05-01T18:17:55.196Z,47.60
2023-05-01T18:20:23.739Z,47.58
2023-05-01T18:22:53.324Z,47.75
2023-05-01T18:25:22.914Z,47.59
2023-05-01T18:27:50.870Z,48.06
2023-05-01T18:30:18.836Z,47.82
2023-05-01T18:32:48.792Z,47.98
2023-05-01T18:35:17.792Z,47.92
2023-05-01T18:37:46.531Z,48.19
2023-05-01T18:40:14.681Z,48.55
2023-05-01T18:42:43.958Z,48.66
2023-05-01T18:45:12.122Z,48.58
2023-05-01T18:47:40.068Z,48.91
2023-05-01T18:50:09.367Z,48.91
2023-05-01T18:52:37.917Z,49.12
2023-05-01T18:55:06.532Z,49.14
2023-05-01T18:57:35.094Z,48.70
2023-05-01T19:00:05.852Z,49.04
2023-05-01T19:02:33.814Z,48.94
2023-05-01T19:05:01.830Z,48.94
2023-05-01T19:07:29.832Z,48.99
2023-05-01T19:09:57.816Z,48.89
2023-05-01T19:12:25.859Z,49.06
2023-05-01T19:14:53.730Z,49.22
2023-05-01T19:17:23.139Z,49.11
2023-05-01T19:19:51.183Z,49.06
2023-05-01T19:22:19.205Z,49.42
2023-05-01T19:24:47.119Z,49.32
2023-05-01T19:27:15.002Z,49.56
2023-05-01T19:29:43.300Z,49.70
2023-05-01T19:32:11.749Z,49.49
2023-05-01T19:34:41.251Z,49.84
2023-05-01T19:37:09.403Z,49.58
2023-05-01T19:39:37.435Z,50.04
2023-05-01T19:42:05.527Z,49.76
2023-05-01T19:44:33.483Z,50.04
2023-05-01T19:47:01.949Z,50.16
2023-05-01T19:49:30.050Z,50.00
2023-05-01T19:51:59.506Z,50.37
2023-05-01T19:54:27.545Z,50.29
2023-05-01T19:56:56.205Z,50.77
2023-05-01T19:59:24.154Z,50.57
2023-05-01T20:01:52.299Z,50.66
2023-05-01T20:04:22.953Z,50.54
2023-05-01T20:06:51.521Z,50.79
2023-05-01T20:09:21.034Z,50.80
2023-05-01T20:11:48.885Z,50.85
2023-05-01T20:14:16.772Z,50.79
2023-05-01T20:16:44.909Z,51.41
2023-05-01T20:19:12.890Z,51.23
2023-05-01T20:21:41.097Z,51.06
2023-05-01T20:24:10.464Z,51.04
2023-05-01T20:26:39.719Z,51.55
2023-05-01T20:29:09.392Z,51.30
2023-05-01T20:31:37.412Z,51.60
2023-05-01T20:34:05.787Z,51.53
2023-05-01T20:36:33.871Z,51.67
2023-05-01T20:39:01.827Z,51.42
2023-05-01T20:41:30.921Z,51.56
2023-05-01T20:44:01.066Z,51.69
2023-05-01T20:46:29.468Z,51.76
2023-05-01T20:48:57.652Z,51.92
2023-05-01T20:51:27.330Z,51.78
2023-05-01T20:53:55.205Z,51.97
2023-05-01T20:56:23.731Z,51.98
2023-05-01T20:58:51.584Z,51.89
2023-05-01T21:01:20.973Z,51.91
2023-05-01T21:03:49.130Z,52.06
2023-05-01T21:06:17.167Z,51.98
2023-05-01T21:08:45.104Z,52.22
2023-05-01T21:11:12.993Z,52.07
2023-05-01T21:13:41.027Z,52.17
2023-05-01T21:16:09.118Z,51.87
2023-05-01T21:18:39.064Z,52.20
2023-05-01T21:21:07.100Z,52.43
2023-05-01T21:23:34.976Z,52.39
2023-05-01T21:26:03.216Z,52.21
2023-05-01T21:28:31.118Z,52.53
2023-05-01T21:30:59.024Z,52.66
2023-05-01T21:33:28.423Z,52.26
2023-05-01T21:35:57.704Z,52.40
2023-05-01T21:38:25.592Z,52.33
2023-05-01T21:40:53.471Z,52.47
2023-05-01T21:43:21.383Z,52.77
2023-05-01T21:45:49.758Z,52.84
2023-05-01T21:48:17.690Z,52.48
2023-05-01T21:50:49.096Z,52.60
2023-05-01T21:53:18.349Z,52.52
2023-05-01T21:55:46.426Z,52.61
2023-05-01T21:58:14.591Z,52.71
2023-05-01T22:00:42.730Z,52.81
2023-05-01T22:03:10.909Z,52.60
2023-05-01T22:05:41.039Z,52.45
2023-05-01T22:08:08.957Z,52.46
2023-05-01T22:10:38.197Z,52.79
2023-05-01T22:13:06.500Z,52.39
2023-05-01T22:15:34.649Z,52.59
2023-05-01T22:18:02.665Z,52.64
2023-05-01T22:20:30.793Z,52.51
2023-05-01T22:22:58.750Z,52.59
2023-05-01T22:25:26.698Z,52.68
2023-05-01T22:27:56.087Z,52.56
2023-05-01T22:30:24.013Z,52.70
2023-05-01T22:32:51.949Z,52.48
2023-05-01T22:35:19.906Z,52.62
2023-05-01T22:37:47.915Z,52.44
2023-05-01T22:40:16.043Z,52.46
2023-05-01T22:42:43.924Z,52.36
2023-05-01T22:45:13.181Z,52.28
2023-05-01T22:47:41.179Z,52.68
2023-05-01T22:50:10.062Z,52.35
2023-05-01T22:52:37.939Z,52.66
2023-05-01T22:55:07.102Z,52.39
2023-05-01T22:57:35.116Z,52.69
2023-05-01T23:00:03.120Z,52.54
2023-05-01T23:02:36.466Z,52.27
2023-05-01T23:05:04.907Z,52.16
2023-05-01T23:07:32.776Z,52.33
2023-05-01T23:10:01.045Z,52.22
2023-05-01T23:12:29.244Z,52.28
2023-05-01T23:14:57.523Z,52.38
2023-05-01T23:17:25.406Z,52.43
2023-05-01T23:19:54.791Z,52.57
2023-05-01T23:24:51.030Z,52.31
2023-05-01T23:27:19.794Z,52.53
2023-05-01T23:29:53.890Z,52.60
2023-05-01T23:32:25.001Z,52.58
2023-05-01T23:34:54.933Z,52.29
2023-05-01T23:37:22.939Z,52.35
2023-05-01T23:39:53.546Z,52.44
2023-05-01T23:42:21.622Z,52.49
2023-05-01T23:44:49.659Z,52.53
2023-05-01T23:47:17.559Z,52.68
2023-05-01T23:49:45.452Z,52.59
2023-05-01T23:52:14.692Z,52.82
2023-05-01T23:54:42.928Z,52.89
2023-05-01T23:57:10.818Z,52.69
2023-05-01T23:59:38.711Z,52.80
